Time;durP1;ratioP1;P1;durP2;ratioP2;P2;SDS_P1;SDS_P2;PMS_P1;PMS_P2;Temp;Humidity;BMP_temperature;BMP_pressure;BME280_temperature;BME280_humidity;BME280_pressure;Samples;Min_cycle;Max_cycle;Signal;HPM_P1;HPM_P2
2021/08/01 00:00:44;;;;;;;2.17;1.20;;;17.10;99.90;;;;;;5207609;28;20206;-65
2021/08/01 00:03:16;;;;;;;3.03;1.67;;;17.10;99.90;;;;;;5207140;28;20248;-67
2021/08/01 00:05:49;;;;;;;5.65;1.50;;;17.10;99.90;;;;;;5208703;28;20538;-65
2021/08/01 00:08:21;;;;;;;3.50;1.33;;;17.10;99.90;;;;;;5208674;28;20563;-65
2021/08/01 00:10:56;;;;;;;3.17;1.30;;;17.10;99.90;;;;;;5207859;28;20198;-63
2021/08/01 00:13:28;;;;;;;4.32;1.30;;;17.10;99.90;;;;;;5207492;28;20237;-65
2021/08/01 00:16:01;;;;;;;2.28;1.60;;;17.10;99.90;;;;;;5208397;28;20206;-63
2021/08/01 00:18:33;;;;;;;3.00;1.60;;;17.10;99.90;;;;;;5208477;28;20238;-62
2021/08/01 00:21:05;;;;;;;1.92;1.30;;;17.10;99.90;;;;;;5208353;28;20198;-63
2021/08/01 00:23:42;;;;;;;5.10;1.40;;;17.10;99.90;;;;;;5207229;28;20661;-64
2021/08/01 00:26:14;;;;;;;3.07;1.40;;;17.10;99.90;;;;;;5208097;28;20198;-64
2021/08/01 00:28:46;;;;;;;4.10;1.30;;;17.00;99.90;;;;;;5207258;28;20241;-63
2021/08/01 00:31:18;;;;;;;4.03;1.40;;;17.00;99.90;;;;;;5207259;28;20217;-65
2021/08/01 00:33:51;;;;;;;2.72;1.10;;;17.00;99.90;;;;;;5207717;28;20321;-70
2021/08/01 00:36:23;;;;;;;2.15;1.27;;;16.90;99.90;;;;;;5207497;28;20206;-67
2021/08/01 00:38:55;;;;;;;2.95;1.20;;;16.90;99.90;;;;;;5207021;28;20686;-66
2021/08/01 00:41:33;;;;;;;1.75;1.02;;;16.80;99.90;;;;;;5208048;28;20279;-66
2021/08/01 00:44:05;;;;;;;1.42;0.95;;;16.80;99.90;;;;;;5208842;28;20283;-65
2021/08/01 00:46:40;;;;;;;1.17;1.02;;;16.70;99.90;;;;;;5208339;28;20676;-63
2021/08/01 00:49:12;;;;;;;5.47;1.30;;;16.70;99.90;;;;;;5208669;28;20551;-64
2021/08/01 00:51:44;;;;;;;2.67;1.40;;;16.60;99.90;;;;;;5224108;28;20522;-65
2021/08/01 00:54:16;;;;;;;2.05;1.30;;;16.70;99.90;;;;;;5206854;28;20240;-65
2021/08/01 00:56:51;;;;;;;2.07;1.20;;;16.60;99.90;;;;;;5207777;28;20573;-64
2021/08/01 00:59:24;;;;;;;3.13;1.50;;;16.60;99.90;;;;;;5207880;28;20245;-63
2021/08/01 01:02:08;;;;;;;3.80;1.43;;;16.60;99.90;;;;;;5207602;28;20206;-63
2021/08/01 01:04:58;;;;;;;3.22;1.40;;;16.50;99.90;;;;;;5207912;28;20240;-65
2021/08/01 01:07:53;;;;;;;3.85;1.30;;;16.50;99.90;;;;;;5207653;28;20190;-64
2021/08/01 01:10:35;;;;;;;2.60;1.55;;;16.50;99.90;;;;;;5208214;28;20509;-62
2021/08/01 01:13:19;;;;;;;1.90;1.20;;;16.40;99.90;;;;;;5208021;28;20541;-63
2021/08/01 01:15:55;;;;;;;2.80;1.43;;;16.50;99.90;;;;;;5223065;28;20210;-62
2021/08/01 01:18:40;;;;;;;2.42;1.63;;;16.50;99.90;;;;;;5207741;28;20341;-62
2021/08/01 01:21:24;;;;;;;1.92;1.30;;;16.40;99.90;;;;;;5223458;28;20186;-65
2021/08/01 01:24:02;;;;;;;3.28;1.50;;;16.40;99.90;;;;;;5207599;28;20672;-64
2021/08/01 01:26:45;;;;;;;3.40;1.70;;;16.40;99.90;;;;;;5211241;28;20194;-62
2021/08/01 01:29:26;;;;;;;1.47;1.27;;;16.40;99.90;;;;;;5211491;28;20230;-66
2021/08/01 01:32:14;;;;;;;4.00;1.60;;;16.40;99.90;;;;;;5211583;28;20275;-67
2021/08/01 01:35:26;;;;;;;4.23;1.30;;;16.40;99.90;;;;;;5210384;28;20288;-65
2021/08/01 01:37:58;;;;;;;6.43;1.50;;;16.40;99.90;;;;;;5209263;28;20202;-65
2021/08/01 01:40:36;;;;;;;1.88;1.30;;;16.30;99.90;;;;;;5192549;28;20226;-66
2021/08/01 01:43:07;;;;;;;2.35;1.58;;;16.30;99.90;;;;;;5210776;28;20210;-66
2021/08/01 01:45:42;;;;;;;4.20;1.30;;;16.30;99.90;;;;;;5211179;28;20522;-66
2021/08/01 01:48:14;;;;;;;4.53;1.80;;;16.20;99.90;;;;;;5211710;28;20268;-65
2021/08/01 01:50:47;;;;;;;4.25;1.50;;;16.30;99.90;;;;;;5211431;28;20661;-65
2021/08/01 01:53:20;;;;;;;2.53;1.60;;;16.20;99.90;;;;;;5211575;28;20210;-66
2021/08/01 01:55:52;;;;;;;4.10;1.40;;;16.20;99.90;;;;;;5211120;28;20552;-66
2021/08/01 01:58:27;;;;;;;3.43;1.60;;;16.20;99.90;;;;;;5210221;28;20238;-68
2021/08/01 02:01:02;;;;;;;3.47;1.60;;;16.10;99.90;;;;;;5211048;28;20641;-62
2021/08/01 02:03:34;;;;;;;2.27;1.60;;;16.10;99.90;;;;;;5209994;28;20218;-63
2021/08/01 02:06:06;;;;;;;3.40;1.70;;;16.10;99.90;;;;;;5209839;28;20202;-64
2021/08/01 02:09:03;;;;;;;4.27;1.70;;;16.10;99.90;;;;;;5209751;28;20202;-65
2021/08/01 02:11:49;;;;;;;4.13;1.40;;;16.10;99.90;;;;;;5226017;28;20271;-64
2021/08/01 02:14:47;;;;;;;2.30;1.43;;;16.00;99.90;;;;;;5226465;28;20665;-63
2021/08/01 02:17:27;;;;;;;2.93;1.37;;;16.00;99.90;;;;;;5209846;28;20194;-66
2021/08/01 02:20:01;;;;;;;3.97;1.70;;;16.00;99.90;;;;;;5210259;28;20240;-65
2021/08/01 02:22:34;;;;;;;3.73;1.57;;;16.00;99.90;;;;;;5210548;28;20201;-65
2021/08/01 02:25:08;;;;;;;3.17;1.53;;;15.90;99.90;;;;;;5225619;28;20230;-65
2021/08/01 02:27:42;;;;;;;1.93;1.60;;;15.90;99.90;;;;;;5225988;28;20214;-67
2021/08/01 02:30:16;;;;;;;2.00;1.77;;;15.90;99.90;;;;;;5210315;28;20541;-70
2021/08/01 02:32:49;;;;;;;3.40;1.80;;;15.90;99.90;;;;;;5210454;28;20268;-64
2021/08/01 02:35:24;;;;;;;3.60;1.40;;;15.80;99.90;;;;;;5209846;28;20680;-63
2021/08/01 02:38:01;;;;;;;4.17;1.80;;;15.90;99.90;;;;;;5208306;28;20271;-64
2021/08/01 02:40:38;;;;;;;4.37;1.60;;;15.80;99.90;;;;;;5210308;28;20237;-62
2021/08/01 02:43:13;;;;;;;2.50;1.50;;;15.80;99.90;;;;;;5210062;28;20206;-64
2021/08/01 02:45:46;;;;;;;3.17;1.77;;;15.80;99.90;;;;;;5209981;28;20300;-63
2021/08/01 02:48:19;;;;;;;2.77;1.60;;;15.80;99.90;;;;;;5209081;28;20229;-67
2021/08/01 02:50:59;;;;;;;1.83;1.30;;;15.80;99.90;;;;;;5210037;28;20233;-62
2021/08/01 02:53:37;;;;;;;4.63;1.60;;;15.80;99.90;;;;;;5209794;28;20213;-63
2021/08/01 02:56:12;;;;;;;3.20;2.00;;;15.70;99.90;;;;;;5225580;28;20241;-64
2021/08/01 02:58:44;;;;;;;4.27;1.57;;;15.70;99.90;;;;;;5209683;28;20237;-68
2021/08/01 03:01:16;;;;;;;2.70;1.43;;;15.70;99.90;;;;;;5210595;28;20668;-64
2021/08/01 03:03:52;;;;;;;2.60;1.70;;;15.70;99.90;;;;;;5209174;28;20217;-66
2021/08/01 03:06:24;;;;;;;4.28;1.90;;;15.70;99.90;;;;;;5209874;28;20202;-64
2021/08/01 03:08:57;;;;;;;2.97;1.80;;;15.70;99.90;;;;;;5209637;28;20551;-64
2021/08/01 03:11:35;;;;;;;4.57;1.60;;;15.70;99.90;;;;;;5209169;28;20529;-63
2021/08/01 03:14:07;;;;;;;3.17;1.60;;;15.70;99.90;;;;;;5209169;28;20268;-64
2021/08/01 03:16:39;;;;;;;2.43;1.73;;;15.60;99.90;;;;;;5208655;28;20210;-63
2021/08/01 03:19:11;;;;;;;2.50;1.60;;;15.70;99.90;;;;;;5208061;28;20206;-62
2021/08/01 03:21:43;;;;;;;4.47;1.70;;;15.70;99.90;;;;;;5209314;28;20202;-65
2021/08/01 03:24:15;;;;;;;2.20;1.57;;;15.70;99.90;;;;;;5209071;28;20198;-65
2021/08/01 03:26:49;;;;;;;3.20;1.73;;;15.70;99.90;;;;;;5209140;28;20202;-65
2021/08/01 03:29:24;;;;;;;2.17;1.57;;;15.70;99.90;;;;;;5208977;28;20217;-63
2021/08/01 03:31:56;;;;;;;2.97;2.23;;;15.70;99.90;;;;;;5209196;28;20233;-64
2021/08/01 03:34:30;;;;;;;1.90;1.70;;;15.70;99.90;;;;;;5209205;28;20576;-65
2021/08/01 03:37:02;;;;;;;3.47;2.10;;;15.70;99.90;;;;;;5208383;28;20241;-63
2021/08/01 03:39:37;;;;;;;2.90;1.80;;;15.70;99.90;;;;;;5208267;28;20634;-63
2021/08/01 03:42:09;;;;;;;2.70;1.73;;;15.70;99.90;;;;;;5208888;28;20495;-65
2021/08/01 03:44:41;;;;;;;4.23;1.73;;;15.80;99.90;;;;;;5209312;28;20210;-65
2021/08/01 03:47:14;;;;;;;3.03;1.87;;;15.80;99.90;;;;;;5224596;28;20268;-67
2021/08/01 03:49:48;;;;;;;4.10;2.13;;;15.80;99.90;;;;;;5224424;28;20202;-64
2021/08/01 03:52:22;;;;;;;3.63;1.73;;;15.80;99.90;;;;;;5192558;28;20542;-63
2021/08/01 03:54:57;;;;;;;4.67;2.10;;;15.90;99.90;;;;;;5191284;28;20210;-66
2021/08/01 03:57:30;;;;;;;2.40;1.60;;;15.90;99.90;;;;;;5207831;28;20229;-63
2021/08/01 04:00:06;;;;;;;2.00;1.80;;;15.90;99.90;;;;;;5208568;28;20226;-63
2021/08/01 04:02:38;;;;;;;5.70;1.80;;;16.00;99.90;;;;;;5208497;28;20197;-67
2021/08/01 04:05:10;;;;;;;2.33;1.60;;;16.00;99.90;;;;;;5208351;28;20214;-64
2021/08/01 04:07:42;;;;;;;3.40;1.87;;;16.00;99.90;;;;;;5207830;28;20525;-65
2021/08/01 04:10:14;;;;;;;2.87;1.80;;;16.10;99.90;;;;;;5208554;28;20221;-63
2021/08/01 04:12:46;;;;;;;2.23;2.00;;;16.10;99.90;;;;;;5207330;28;20221;-63
2021/08/01 04:15:18;;;;;;;2.87;1.77;;;16.20;99.90;;;;;;5208248;28;20209;-64
2021/08/01 04:17:50;;;;;;;3.07;2.13;;;16.20;99.90;;;;;;5207494;28;20542;-62
2021/08/01 04:20:24;;;;;;;4.10;1.90;;;16.30;99.90;;;;;;5207027;28;20260;-66
2021/08/01 04:22:56;;;;;;;4.83;2.20;;;16.30;99.90;;;;;;5208449;28;20228;-64
2021/08/01 04:25:31;;;;;;;3.67;1.90;;;16.30;99.90;;;;;;5208242;28;20198;-65
2021/08/01 04:28:03;;;;;;;3.07;1.80;;;16.40;99.90;;;;;;5208508;28;20216;-66
2021/08/01 04:30:42;;;;;;;5.50;2.40;;;16.40;99.90;;;;;;5207298;28;20205;-66
2021/08/01 04:33:15;;;;;;;3.77;2.33;;;16.50;99.90;;;;;;5208329;28;20197;-65
2021/08/01 04:35:47;;;;;;;4.90;2.03;;;16.50;99.90;;;;;;5207291;28;20210;-66
2021/08/01 04:38:20;;;;;;;4.38;1.90;;;16.50;99.90;;;;;;5208291;28;20221;-65
2021/08/01 04:40:52;;;;;;;3.53;2.00;;;16.60;99.90;;;;;;5208229;28;20594;-64
2021/08/01 04:43:24;;;;;;;2.55;1.60;;;16.60;99.90;;;;;;5207979;28;20252;-64
2021/08/01 04:45:56;;;;;;;4.25;2.03;;;16.70;99.90;;;;;;5207268;28;20677;-64
2021/08/01 04:48:28;;;;;;;4.03;2.00;;;16.70;99.90;;;;;;5207219;28;20206;-64
2021/08/01 04:51:04;;;;;;;4.18;1.98;;;16.80;99.90;;;;;;5207037;28;20221;-64
2021/08/01 04:53:36;;;;;;;4.20;1.92;;;16.80;99.90;;;;;;5208171;28;20587;-65
2021/08/01 04:56:11;;;;;;;3.65;2.10;;;16.90;99.90;;;;;;5207898;28;20206;-66
2021/08/01 04:58:45;;;;;;;5.28;2.20;;;16.90;99.90;;;;;;5208345;28;20562;-65
2021/08/01 05:01:17;;;;;;;4.22;1.80;;;17.00;99.90;;;;;;5210747;28;20218;-67
2021/08/01 05:03:52;;;;;;;3.05;1.90;;;17.20;99.90;;;;;;5211058;28;20209;-66
2021/08/01 05:06:24;;;;;;;2.80;1.83;;;17.20;99.90;;;;;;5211149;28;20202;-68
2021/08/01 05:08:55;;;;;;;3.33;2.13;;;17.30;99.90;;;;;;5227599;28;20194;-66
2021/08/01 05:11:30;;;;;;;3.85;2.00;;;17.30;99.90;;;;;;5210762;28;20210;-66
2021/08/01 05:14:01;;;;;;;2.90;1.90;;;17.40;99.90;;;;;;5212174;28;20534;-63
2021/08/01 05:16:37;;;;;;;3.25;1.92;;;17.40;99.90;;;;;;5211667;28;20236;-64
2021/08/01 05:19:12;;;;;;;3.25;1.77;;;17.40;99.90;;;;;;5227723;28;20206;-63
2021/08/01 05:21:45;;;;;;;3.50;1.90;;;17.50;99.90;;;;;;5210829;28;20549;-62
2021/08/01 05:24:18;;;;;;;3.53;2.10;;;17.50;99.90;;;;;;5211941;28;20200;-62
2021/08/01 05:26:50;;;;;;;4.93;1.85;;;17.60;99.90;;;;;;5211232;28;20230;-66
2021/08/01 05:29:22;;;;;;;6.78;2.17;;;17.70;99.90;;;;;;5211658;28;20562;-64
2021/08/01 05:31:55;;;;;;;4.72;2.05;;;17.70;99.90;;;;;;5210216;28;20234;-66
2021/08/01 05:34:30;;;;;;;5.35;1.80;;;17.80;99.90;;;;;;5210246;28;20293;-66
2021/08/01 05:37:02;;;;;;;4.43;2.08;;;17.90;99.90;;;;;;5209927;28;20229;-63
2021/08/01 05:39:35;;;;;;;6.05;2.40;;;18.00;99.90;;;;;;5211121;28;20206;-65
2021/08/01 05:42:07;;;;;;;3.65;2.05;;;18.10;99.90;;;;;;5211428;28;20234;-63
2021/08/01 05:44:39;;;;;;;5.05;1.92;;;18.20;99.90;;;;;;5209879;28;20217;-63
2021/08/01 05:47:11;;;;;;;2.55;1.77;;;18.20;99.90;;;;;;5194077;28;20664;-66
2021/08/01 05:49:43;;;;;;;4.32;2.10;;;18.30;99.90;;;;;;5193770;28;20190;-65
2021/08/01 05:52:16;;;;;;;5.32;2.20;;;18.40;99.90;;;;;;5209814;28;20210;-63
2021/08/01 05:54:51;;;;;;;4.82;1.88;;;18.40;99.90;;;;;;5210962;28;20202;-63
2021/08/01 05:57:23;;;;;;;4.70;2.10;;;18.50;99.90;;;;;;5210904;28;20241;-68
2021/08/01 05:59:56;;;;;;;4.53;1.80;;;18.50;99.90;;;;;;5193846;28;20198;-66
2021/08/01 06:02:27;;;;;;;2.72;1.83;;;18.60;99.90;;;;;;5210711;28;20233;-64
2021/08/01 06:04:59;;;;;;;3.53;1.92;;;18.70;99.90;;;;;;5210645;28;20186;-65
2021/08/01 06:07:32;;;;;;;3.10;1.85;;;18.90;99.90;;;;;;5210710;28;20237;-65
2021/08/01 06:10:04;;;;;;;4.57;1.73;;;19.00;99.90;;;;;;5209727;28;20198;-66
2021/08/01 06:12:36;;;;;;;5.38;1.60;;;19.30;99.90;;;;;;5209541;28;20230;-68
2021/08/01 06:15:09;;;;;;;3.08;2.10;;;20.20;99.90;;;;;;5210624;28;20226;-67
2021/08/01 06:17:41;;;;;;;1.77;1.17;;;21.50;99.90;;;;;;5210526;28;20234;-64
2021/08/01 06:20:15;;;;;;;3.97;1.50;;;22.80;99.90;;;;;;5225937;28;20230;-65
2021/08/01 06:22:47;;;;;;;4.28;1.13;;;24.20;99.90;;;;;;5209934;28;20598;-68
2021/08/01 06:25:22;;;;;;;4.18;1.50;;;25.20;99.90;;;;;;5210597;28;20648;-63
2021/08/01 06:27:56;;;;;;;3.83;1.55;;;25.90;99.90;;;;;;5209395;28;20567;-65
2021/08/01 06:30:28;;;;;;;3.28;1.25;;;26.30;99.90;;;;;;5210190;28;20205;-66
2021/08/01 06:33:01;;;;;;;2.55;1.00;;;26.90;99.90;;;;;;5208841;28;20244;-64
2021/08/01 06:35:33;;;;;;;2.03;1.00;;;27.90;99.90;;;;;;5225977;28;20514;-65
2021/08/01 06:38:05;;;;;;;1.48;0.90;;;29.10;99.90;;;;;;5192585;28;20236;-64
2021/08/01 06:40:39;;;;;;;3.42;1.20;;;29.50;99.90;;;;;;5210193;28;20533;-67
2021/08/01 06:43:11;;;;;;;2.38;1.02;;;29.80;99.90;;;;;;5210226;28;20233;-65
2021/08/01 06:45:43;;;;;;;2.63;0.90;;;30.10;99.90;;;;;;5210134;28;20206;-64
2021/08/01 06:48:15;;;;;;;3.15;0.95;;;30.70;99.90;;;;;;5210032;28;20329;-68
2021/08/01 06:50:50;;;;;;;2.05;0.85;;;31.10;99.90;;;;;;5225443;28;20206;-66
2021/08/01 06:53:27;;;;;;;2.30;1.10;;;31.60;99.90;;;;;;5208782;28;20248;-65
2021/08/01 06:55:59;;;;;;;3.25;1.10;;;31.70;99.90;;;;;;5210123;28;20531;-65
2021/08/01 06:58:31;;;;;;;2.30;1.10;;;31.80;99.90;;;;;;5225415;28;20670;-67
2021/08/01 07:01:05;;;;;;;2.13;0.80;;;31.80;98.90;;;;;;5208776;28;20222;-64
2021/08/01 07:03:38;;;;;;;2.67;1.00;;;31.80;98.50;;;;;;5209649;28;20331;-64
2021/08/01 07:06:10;;;;;;;1.88;0.70;;;31.90;98.20;;;;;;5209756;28;20198;-66
2021/08/01 07:08:42;;;;;;;1.05;0.80;;;32.40;97.60;;;;;;5192309;28;20670;-67
2021/08/01 07:11:16;;;;;;;2.10;1.00;;;33.10;96.40;;;;;;5209577;28;20225;-65
2021/08/01 07:13:48;;;;;;;1.67;1.00;;;33.50;95.50;;;;;;5192303;28;20210;-65
2021/08/01 07:16:20;;;;;;;2.13;0.98;;;33.70;94.80;;;;;;5209377;28;20271;-62
2021/08/01 07:18:52;;;;;;;4.47;0.82;;;33.80;94.30;;;;;;5208436;28;20287;-65
2021/08/01 07:21:24;;;;;;;1.75;0.90;;;33.80;93.60;;;;;;5208494;28;20240;-69
2021/08/01 07:23:56;;;;;;;1.83;0.90;;;34.00;92.70;;;;;;5207934;28;20233;-65
2021/08/01 07:26:29;;;;;;;3.38;1.10;;;34.40;92.50;;;;;;5208417;28;20206;-65
2021/08/01 07:29:00;;;;;;;3.05;0.93;;;34.20;91.90;;;;;;5208234;28;20550;-64
2021/08/01 07:31:35;;;;;;;1.58;0.90;;;33.80;91.60;;;;;;5209451;28;20202;-69
2021/08/01 07:34:07;;;;;;;2.55;0.80;;;33.50;92.00;;;;;;5208499;28;20649;-68
2021/08/01 07:36:39;;;;;;;3.22;1.02;;;33.10;91.60;;;;;;5209628;28;20221;-64
2021/08/01 07:39:11;;;;;;;2.70;0.82;;;32.30;92.30;;;;;;5209672;28;20241;-65
2021/08/01 07:41:42;;;;;;;3.42;1.30;;;31.20;92.80;;;;;;5210436;28;20233;-66
2021/08/01 07:44:14;;;;;;;2.60;0.90;;;30.60;93.80;;;;;;5210273;28;20230;-65
2021/08/01 07:46:49;;;;;;;2.55;1.17;;;30.00;94.30;;;;;;5210407;28;20648;-67
2021/08/01 07:49:22;;;;;;;2.03;1.10;;;29.50;95.00;;;;;;5208011;28;20225;-67
2021/08/01 07:51:54;;;;;;;2.63;1.20;;;29.10;96.10;;;;;;5208934;28;20210;-62
2021/08/01 07:54:26;;;;;;;2.20;1.10;;;29.00;95.80;;;;;;5207829;28;20537;-65
2021/08/01 07:56:59;;;;;;;1.58;0.90;;;29.00;95.80;;;;;;5208732;28;20249;-69
2021/08/01 07:59:30;;;;;;;1.55;1.10;;;28.70;95.30;;;;;;5207331;28;20677;-69
2021/08/01 08:02:02;;;;;;;1.83;1.17;;;28.40;95.60;;;;;;5208513;28;20230;-65
2021/08/01 08:04:36;;;;;;;1.58;0.85;;;28.00;96.10;;;;;;5208502;28;20260;-67
2021/08/01 08:07:10;;;;;;;2.00;0.88;;;27.70;96.80;;;;;;5207869;28;20202;-66
2021/08/01 08:09:43;;;;;;;3.65;0.90;;;27.60;96.50;;;;;;5208852;28;20225;-65
2021/08/01 08:12:18;;;;;;;2.13;1.00;;;27.00;96.20;;;;;;5208367;28;20206;-64
2021/08/01 08:14:51;;;;;;;2.03;1.00;;;26.50;97.10;;;;;;5208435;28;20229;-66
2021/08/01 08:17:23;;;;;;;2.20;1.20;;;26.20;97.70;;;;;;5207338;28;20289;-65
2021/08/01 08:19:55;;;;;;;1.98;1.15;;;26.10;97.80;;;;;;5207759;28;20257;-65
2021/08/01 08:22:27;;;;;;;1.70;0.90;;;26.00;97.90;;;;;;5208281;28;20237;-64
2021/08/01 08:24:59;;;;;;;1.67;1.02;;;25.90;98.40;;;;;;5207361;28;20226;-67
2021/08/01 08:27:31;;;;;;;1.20;0.90;;;26.00;98.60;;;;;;5191161;28;20222;-66
2021/08/01 08:30:07;;;;;;;2.72;1.15;;;25.70;98.90;;;;;;5207472;28;20727;-65
2021/08/01 08:32:39;;;;;;;2.25;1.13;;;25.70;99.10;;;;;;5207345;28;20186;-66
2021/08/01 08:35:12;;;;;;;1.48;1.08;;;25.70;98.90;;;;;;5206656;28;20284;-67
2021/08/01 08:37:52;;;;;;;3.45;1.00;;;25.60;99.30;;;;;;5208322;28;20225;-67
2021/08/01 08:40:23;;;;;;;2.92;1.10;;;25.40;99.00;;;;;;5223582;28;20237;-66
2021/08/01 08:42:55;;;;;;;1.90;1.13;;;25.30;99.10;;;;;;5208380;28;20205;-66
2021/08/01 08:45:30;;;;;;;1.48;0.88;;;25.10;98.80;;;;;;5207814;28;20222;-68
2021/08/01 08:48:04;;;;;;;4.45;1.33;;;25.10;99.30;;;;;;5207774;28;20202;-64
2021/08/01 08:50:40;;;;;;;3.85;1.00;;;24.70;99.90;;;;;;5208154;28;20226;-66
2021/08/01 08:53:19;;;;;;;2.42;1.10;;;24.50;99.90;;;;;;5208236;28;20293;-63
2021/08/01 08:55:52;;;;;;;2.35;1.20;;;24.60;99.90;;;;;;5206891;28;20225;-63
2021/08/01 08:58:29;;;;;;;2.42;1.05;;;24.70;99.90;;;;;;5207586;28;20226;-66
2021/08/01 09:01:01;;;;;;;1.42;0.93;;;25.20;99.90;;;;;;5223493;28;20237;-64
2021/08/01 09:03:34;;;;;;;3.80;1.35;;;25.50;99.90;;;;;;5206982;28;20210;-65
2021/08/01 09:06:06;;;;;;;2.70;1.17;;;25.80;99.90;;;;;;5207532;28;20289;-65
2021/08/01 09:08:40;;;;;;;1.50;1.00;;;26.20;99.90;;;;;;5207108;28;20217;-66
2021/08/01 09:11:11;;;;;;;2.33;1.40;;;26.50;99.90;;;;;;5206629;28;20209;-66
2021/08/01 09:13:54;;;;;;;3.20;1.10;;;26.80;99.90;;;;;;5207893;28;20260;-64
2021/08/01 09:16:43;;;;;;;2.85;1.20;;;26.90;99.10;;;;;;5223384;28;20528;-66
2021/08/01 09:19:30;;;;;;;3.83;1.25;;;26.80;98.90;;;;;;5207649;28;20214;-67
2021/08/01 09:22:22;;;;;;;4.63;1.10;;;26.90;99.20;;;;;;5207982;28;20230;-65
2021/08/01 09:24:56;;;;;;;2.00;1.20;;;26.60;98.20;;;;;;5208004;28;20195;-64
2021/08/01 09:27:31;;;;;;;2.38;1.10;;;26.40;98.60;;;;;;5206859;28;20182;-65
2021/08/01 09:30:04;;;;;;;2.40;1.38;;;26.40;99.10;;;;;;5207654;28;20202;-66
2021/08/01 09:32:49;;;;;;;2.60;0.93;;;26.40;99.10;;;;;;5206553;28;20221;-65
2021/08/01 09:35:22;;;;;;;2.58;1.20;;;26.20;98.70;;;;;;5206413;28;20229;-67
2021/08/01 09:37:58;;;;;;;1.77;1.10;;;26.30;98.80;;;;;;5207475;28;20225;-65
2021/08/01 09:40:34;;;;;;;1.65;1.00;;;26.20;98.80;;;;;;5207487;28;20230;-66
2021/08/01 09:43:11;;;;;;;3.10;1.20;;;26.10;98.70;;;;;;5207849;28;20202;-66
2021/08/01 09:45:53;;;;;;;1.02;0.90;;;26.20;98.90;;;;;;5223150;28;20240;-65
2021/08/01 09:48:24;;;;;;;2.88;1.30;;;26.20;98.80;;;;;;5211741;28;20197;-65
2021/08/01 09:51:05;;;;;;;1.40;0.90;;;26.50;98.40;;;;;;5211133;28;20230;-63
2021/08/01 09:53:40;;;;;;;5.05;1.20;;;26.60;98.00;;;;;;5227259;28;20234;-65
2021/08/01 09:56:19;;;;;;;2.33;1.27;;;26.50;97.80;;;;;;5211414;28;20236;-66
2021/08/01 09:58:53;;;;;;;2.15;1.27;;;26.40;98.00;;;;;;5211960;28;20202;-66
2021/08/01 10:01:25;;;;;;;3.22;1.17;;;26.20;98.10;;;;;;5212048;28;20245;-64
2021/08/01 10:03:59;;;;;;;1.77;0.90;;;26.00;98.20;;;;;;5210665;28;20582;-62
2021/08/01 10:06:35;;;;;;;1.63;1.00;;;25.80;98.30;;;;;;5210903;28;20558;-66
2021/08/01 10:09:16;;;;;;;2.30;1.20;;;25.80;98.20;;;;;;5193795;28;20229;-66
2021/08/01 10:11:58;;;;;;;2.20;1.00;;;25.80;98.30;;;;;;5210726;28;20230;-66
2021/08/01 10:14:31;;;;;;;3.30;1.10;;;25.70;98.20;;;;;;5210827;28;20209;-67
2021/08/01 10:17:04;;;;;;;3.60;1.38;;;25.80;98.20;;;;;;5209642;28;20230;-66
2021/08/01 10:19:39;;;;;;;3.67;1.40;;;25.90;98.20;;;;;;5226293;28;20320;-64
2021/08/01 10:22:11;;;;;;;1.80;1.15;;;25.90;98.30;;;;;;5210234;28;20229;-64
2021/08/01 10:24:50;;;;;;;3.10;1.23;;;25.80;98.40;;;;;;5209577;28;20488;-66
2021/08/01 10:27:23;;;;;;;2.70;1.00;;;25.80;98.70;;;;;;5210660;28;20253;-66
2021/08/01 10:29:55;;;;;;;2.80;1.30;;;25.80;97.90;;;;;;5209474;28;20202;-67
2021/08/01 10:32:34;;;;;;;1.58;0.95;;;25.70;98.00;;;;;;5210351;28;20211;-67
2021/08/01 10:35:12;;;;;;;1.27;0.93;;;25.60;98.00;;;;;;5210344;28;20248;-66
2021/08/01 10:37:44;;;;;;;1.52;1.05;;;25.70;98.40;;;;;;5210112;28;20241;-63
2021/08/01 10:40:24;;;;;;;1.90;1.20;;;25.50;98.40;;;;;;5210151;28;20214;-66
2021/08/01 10:43:05;;;;;;;3.88;1.60;;;25.50;98.40;;;;;;5210247;28;20222;-62
2021/08/01 10:45:42;;;;;;;1.98;1.10;;;25.50;98.10;;;;;;5210206;28;20186;-64
2021/08/01 10:48:14;;;;;;;1.40;1.00;;;25.30;98.30;;;;;;5210486;28;20197;-65
2021/08/01 10:50:49;;;;;;;2.53;1.38;;;25.30;98.40;;;;;;5210061;28;20202;-66
2021/08/01 10:53:21;;;;;;;2.25;1.10;;;25.20;98.20;;;;;;5210290;28;20201;-66
2021/08/01 10:56:05;;;;;;;2.13;1.20;;;25.10;98.30;;;;;;5209308;28;20233;-64
2021/08/01 10:58:38;;;;;;;4.13;1.20;;;25.20;98.50;;;;;;5208997;28;20316;-65
2021/08/01 11:01:10;;;;;;;3.03;1.30;;;25.20;98.30;;;;;;5192524;28;20237;-67
2021/08/01 11:03:42;;;;;;;2.85;1.30;;;25.30;98.60;;;;;;5209722;28;20216;-65
2021/08/01 11:06:46;;;;;;;2.70;1.55;;;25.40;98.40;;;;;;5209622;28;20229;-68
2021/08/01 11:09:20;;;;;;;5.22;1.30;;;25.50;98.30;;;;;;5209982;28;20192;-67
2021/08/01 11:12:17;;;;;;;2.92;1.52;;;25.50;98.00;;;;;;5224984;28;20229;-62
2021/08/01 11:14:54;;;;;;;3.50;1.15;;;25.40;98.00;;;;;;5209885;28;20541;-67
2021/08/01 11:17:51;;;;;;;1.98;1.20;;;25.50;98.30;;;;;;5208276;28;20367;-67
2021/08/01 11:20:29;;;;;;;2.92;1.42;;;25.40;98.60;;;;;;5208440;28;20210;-65
2021/08/01 11:23:03;;;;;;;6.63;1.40;;;25.50;98.40;;;;;;5209633;28;20249;-64
2021/08/01 11:25:42;;;;;;;2.47;1.13;;;25.40;98.20;;;;;;5208825;28;20198;-66
2021/08/01 11:28:28;;;;;;;1.73;1.33;;;25.40;98.20;;;;;;5208292;28;20236;-67
2021/08/01 11:31:01;;;;;;;5.00;1.38;;;25.40;98.00;;;;;;5209190;28;20212;-64
2021/08/01 11:33:35;;;;;;;1.92;1.25;;;25.20;97.70;;;;;;5208229;28;20213;-66
2021/08/01 11:36:10;;;;;;;2.05;1.52;;;25.10;97.90;;;;;;5207988;28;20213;-64
2021/08/01 11:38:51;;;;;;;3.15;1.60;;;25.00;98.30;;;;;;5208942;28;20640;-64
2021/08/01 11:41:26;;;;;;;4.50;1.23;;;24.80;98.00;;;;;;5207980;28;20534;-69
2021/08/01 11:44:16;;;;;;;1.90;1.25;;;24.80;98.30;;;;;;5209214;28;20628;-66
2021/08/01 11:47:00;;;;;;;4.07;1.50;;;24.80;98.40;;;;;;5207971;28;20230;-65
2021/08/01 11:49:49;;;;;;;2.75;1.40;;;24.90;98.20;;;;;;5209467;28;20530;-64
2021/08/01 11:52:46;;;;;;;3.38;1.55;;;24.90;98.20;;;;;;5207983;28;20557;-66
2021/08/01 11:55:20;;;;;;;1.88;1.27;;;24.90;98.10;;;;;;5208714;28;20590;-66
2021/08/01 11:57:52;;;;;;;2.50;1.40;;;24.90;98.00;;;;;;5208679;28;20237;-64
2021/08/01 12:00:24;;;;;;;2.53;1.50;;;24.90;97.50;;;;;;5207492;28;20626;-65
2021/08/01 12:02:58;;;;;;;2.38;1.60;;;24.80;97.70;;;;;;5208443;28;20238;-66
2021/08/01 12:05:44;;;;;;;2.13;1.45;;;24.80;98.00;;;;;;5207591;28;20217;-65
2021/08/01 12:08:34;;;;;;;1.92;1.48;;;24.80;97.80;;;;;;5209391;28;20556;-65
2021/08/01 12:11:17;;;;;;;2.50;1.35;;;24.80;98.00;;;;;;5209609;28;20186;-64
2021/08/01 12:14:10;;;;;;;4.40;1.85;;;24.70;98.20;;;;;;5209500;28;20679;-65
2021/08/01 12:17:02;;;;;;;2.63;1.42;;;24.70;98.20;;;;;;5208355;28;20229;-66
2021/08/01 12:19:45;;;;;;;4.43;1.52;;;24.70;98.40;;;;;;5209365;28;20192;-67
2021/08/01 12:22:20;;;;;;;2.70;1.52;;;24.70;98.60;;;;;;5208368;28;20241;-65
2021/08/01 12:24:57;;;;;;;1.90;1.42;;;24.70;98.50;;;;;;5207503;28;20216;-66
2021/08/01 12:27:38;;;;;;;3.30;1.40;;;24.50;98.20;;;;;;5224033;28;20229;-63
2021/08/01 12:30:19;;;;;;;2.35;1.67;;;24.40;98.70;;;;;;5208309;28;20248;-65
2021/08/01 12:32:53;;;;;;;3.45;1.52;;;24.30;98.70;;;;;;5208542;28;20731;-67
2021/08/01 12:35:26;;;;;;;2.38;1.70;;;24.40;98.80;;;;;;5223753;28;20206;-68
2021/08/01 12:38:08;;;;;;;2.67;1.63;;;24.40;99.00;;;;;;5208201;28;20245;-65
2021/08/01 12:40:45;;;;;;;2.00;1.60;;;24.50;99.20;;;;;;5208465;28;20209;-65
2021/08/01 12:43:29;;;;;;;5.20;1.73;;;24.50;99.10;;;;;;5207754;28;20241;-65
2021/08/01 12:46:14;;;;;;;2.42;1.67;;;24.50;99.10;;;;;;5208068;28;20195;-65
2021/08/01 12:48:49;;;;;;;2.97;1.90;;;24.50;99.10;;;;;;5207492;28;20259;-63
2021/08/01 12:51:21;;;;;;;2.58;1.60;;;24.60;99.30;;;;;;5207912;28;20197;-63
2021/08/01 12:53:54;;;;;;;2.65;1.50;;;24.60;99.00;;;;;;5207135;28;20233;-65
2021/08/01 12:56:29;;;;;;;5.80;1.55;;;24.70;99.00;;;;;;5207084;28;20212;-65
2021/08/01 12:59:11;;;;;;;2.50;1.83;;;24.80;99.00;;;;;;5206943;28;20229;-65
2021/08/01 13:01:45;;;;;;;3.47;2.42;;;24.90;99.10;;;;;;5207994;28;20553;-63
2021/08/01 13:04:21;;;;;;;4.78;2.35;;;24.80;98.90;;;;;;5223577;28;20205;-67
2021/08/01 13:07:02;;;;;;;2.75;2.30;;;24.80;99.10;;;;;;5206987;28;20263;-64
2021/08/01 13:09:37;;;;;;;2.25;1.67;;;24.90;99.10;;;;;;5206704;28;20684;-64
2021/08/01 13:12:16;;;;;;;2.25;1.80;;;24.90;99.00;;;;;;5223810;28;20508;-64
2021/08/01 13:14:48;;;;;;;4.55;1.88;;;24.90;99.20;;;;;;5223743;28;20214;-67
2021/08/01 13:17:41;;;;;;;3.13;1.65;;;24.90;99.30;;;;;;5207807;28;20202;-65
2021/08/01 13:20:41;;;;;;;1.80;1.48;;;25.00;99.60;;;;;;5207093;28;20289;-63
2021/08/01 13:23:41;;;;;;;2.47;1.80;;;25.10;99.50;;;;;;5211830;28;20649;-64
2021/08/01 13:26:23;;;;;;;2.08;1.85;;;25.00;99.60;;;;;;5212509;28;20522;-64
2021/08/01 13:29:07;;;;;;;2.28;1.75;;;24.90;99.10;;;;;;5211943;28;20603;-65
2021/08/01 13:31:43;;;;;;;2.05;1.50;;;24.80;99.30;;;;;;5211900;28;20186;-64